Time;durP1;ratioP1;P1;durP2;ratioP2;P2;SDS_P1;SDS_P2;PMS_P1;PMS_P2;Temp;Humidity;BMP_temperature;BMP_pressure;BME280_temperature;BME280_humidity;BME280_pressure;Samples;Min_cycle;Max_cycle;Signal;HPM_P1;HPM_P2
2023/06/06 00:02:11;;;;;;;15.80;6.00;;;;;;;;;;5075060;28;20455;-73
2023/06/06 00:04:37;;;;;;;11.30;5.72;;;;;;;;;;5074708;28;20029;-73
2023/06/06 00:07:04;;;;;;;11.90;6.25;;;;;;;;;;5074709;28;20025;-73
2023/06/06 00:09:31;;;;;;;12.68;5.50;;;;;;;;;;5073280;28;20131;-73
2023/06/06 00:11:57;;;;;;;12.18;5.15;;;;;;;;;;5074961;28;20039;-73
2023/06/06 00:14:24;;;;;;;13.13;5.65;;;;;;;;;;5073510;28;20344;-73
2023/06/06 00:16:51;;;;;;;8.90;5.43;;;;;;;;;;5075011;28;20017;-73
2023/06/06 00:19:20;;;;;;;11.90;5.20;;;;;;;;;;5075119;28;20129;-73
2023/06/06 00:21:46;;;;;;;9.80;5.10;;;;;;;;;;5074901;28;20455;-73
2023/06/06 00:24:12;;;;;;;10.88;5.60;;;;;;;;;;5074490;28;20032;-73
2023/06/06 00:26:38;;;;;;;12.95;4.97;;;;;;;;;;5074643;28;20394;-73
2023/06/06 00:29:05;;;;;;;10.57;5.13;;;;;;;;;;5074781;28;20494;-73
2023/06/06 00:31:31;;;;;;;10.23;5.10;;;;;;;;;;5074412;28;20021;-73
2023/06/06 00:33:57;;;;;;;8.30;4.63;;;;;;;;;;5074464;28;20089;-73
2023/06/06 00:36:23;;;;;;;12.32;4.57;;;;;;;;;;5073234;28;20032;-73
2023/06/06 00:38:50;;;;;;;10.75;5.00;;;;;;;;;;5074187;28;20031;-73
2023/06/06 00:41:16;;;;;;;10.65;4.85;;;;;;;;;;5074518;28;20054;-73
2023/06/06 00:43:43;;;;;;;9.75;4.78;;;;;;;;;;5073024;28;20501;-73
2023/06/06 00:46:10;;;;;;;13.10;5.13;;;;;;;;;;5092112;28;20112;-73
2023/06/06 00:48:36;;;;;;;12.18;5.05;;;;;;;;;;5094738;28;20028;-73
2023/06/06 00:51:02;;;;;;;10.88;4.35;;;;;;;;;;5094338;28;20033;-73
2023/06/06 00:53:28;;;;;;;9.75;4.32;;;;;;;;;;5094204;28;20477;-73
2023/06/06 00:55:54;;;;;;;10.43;4.47;;;;;;;;;;5094284;28;20106;-73
2023/06/06 00:58:20;;;;;;;9.93;5.03;;;;;;;;;;5074456;28;20039;-73
2023/06/06 01:00:47;;;;;;;15.93;5.40;;;;;;;;;;5074061;28;20021;-73
2023/06/06 01:03:14;;;;;;;9.68;5.00;;;;;;;;;;5074272;28;20044;-73
2023/06/06 01:05:40;;;;;;;12.35;4.63;;;;;;;;;;5073610;28;20529;-73
2023/06/06 01:08:07;;;;;;;12.40;5.15;;;;;;;;;;5073695;28;20112;-73
2023/06/06 01:10:37;;;;;;;11.38;4.90;;;;;;;;;;5088686;28;20056;-73
2023/06/06 01:13:06;;;;;;;11.32;5.05;;;;;;;;;;5077126;28;20078;-73
2023/06/06 01:15:43;;;;;;;13.32;5.55;;;;;;;;;;5073857;28;20025;-73
2023/06/06 01:18:11;;;;;;;12.38;4.65;;;;;;;;;;5073554;28;20029;-73
2023/06/06 01:20:39;;;;;;;10.15;4.30;;;;;;;;;;5073595;28;20024;-73
2023/06/06 01:23:05;;;;;;;10.35;4.70;;;;;;;;;;5073506;28;20469;-73
2023/06/06 01:25:34;;;;;;;10.52;5.07;;;;;;;;;;5073678;28;20486;-73
2023/06/06 01:28:00;;;;;;;10.95;5.22;;;;;;;;;;5073695;28;20065;-73
2023/06/06 01:30:27;;;;;;;10.70;5.25;;;;;;;;;;5073566;28;20035;-73
2023/06/06 01:33:10;;;;;;;13.18;5.82;;;;;;;;;;5090065;28;20397;-73
2023/06/06 01:35:54;;;;;;;12.18;5.88;;;;;;;;;;5093515;28;20031;-73
2023/06/06 01:38:21;;;;;;;12.57;5.53;;;;;;;;;;5093426;28;20478;-73
2023/06/06 01:40:48;;;;;;;11.65;5.30;;;;;;;;;;5093290;28;20021;-73
2023/06/06 01:43:16;;;;;;;11.25;5.90;;;;;;;;;;5085299;28;20531;-73
2023/06/06 01:45:43;;;;;;;11.45;5.32;;;;;;;;;;5087063;28;20474;-73
2023/06/06 01:48:09;;;;;;;11.70;4.93;;;;;;;;;;5092878;28;20076;-73
2023/06/06 01:50:35;;;;;;;10.52;5.57;;;;;;;;;;5093509;28;20032;-73
2023/06/06 01:53:01;;;;;;;9.77;5.50;;;;;;;;;;5100820;28;20108;-73
2023/06/06 01:55:27;;;;;;;10.85;5.70;;;;;;;;;;5099028;28;20024;-73
2023/06/06 01:57:53;;;;;;;12.45;5.47;;;;;;;;;;5093184;28;20085;-73
2023/06/06 02:00:20;;;;;;;12.68;4.75;;;;;;;;;;5093237;28;20020;-73
2023/06/06 02:02:46;;;;;;;15.43;5.45;;;;;;;;;;5093323;28;20454;-73
2023/06/06 02:05:12;;;;;;;13.60;4.93;;;;;;;;;;5092932;28;20066;-73
2023/06/06 02:07:41;;;;;;;12.48;5.38;;;;;;;;;;5074491;28;20059;-73
2023/06/06 02:10:07;;;;;;;11.90;4.78;;;;;;;;;;5091590;28;20491;-73
2023/06/06 02:12:33;;;;;;;9.50;5.35;;;;;;;;;;5092943;28;20509;-73
2023/06/06 02:14:59;;;;;;;12.50;5.50;;;;;;;;;;5092785;28;20028;-73
2023/06/06 02:17:25;;;;;;;12.65;5.85;;;;;;;;;;5092860;28;20035;-73
2023/06/06 02:19:51;;;;;;;13.75;5.20;;;;;;;;;;5092788;28;20016;-73
2023/06/06 02:22:17;;;;;;;11.50;5.78;;;;;;;;;;5092762;28;20439;-73
2023/06/06 02:24:43;;;;;;;12.07;5.85;;;;;;;;;;5092530;28;20032;-73
2023/06/06 02:27:09;;;;;;;13.88;5.85;;;;;;;;;;5092563;28;20024;-73
2023/06/06 02:29:35;;;;;;;14.10;6.10;;;;;;;;;;5092913;28;20020;-73
2023/06/06 02:32:03;;;;;;;17.00;7.45;;;;;;;;;;5090858;28;20020;-73
2023/06/06 02:34:29;;;;;;;9.95;5.25;;;;;;;;;;5099675;28;20030;-73
2023/06/06 02:36:57;;;;;;;13.43;7.07;;;;;;;;;;5108776;28;20450;-73
2023/06/06 02:39:23;;;;;;;11.70;5.60;;;;;;;;;;5098576;28;20076;-73
2023/06/06 02:41:52;;;;;;;15.23;6.28;;;;;;;;;;5092422;28;21696;-73
2023/06/06 02:44:19;;;;;;;13.60;6.25;;;;;;;;;;5092220;28;20522;-73
2023/06/06 02:46:46;;;;;;;12.70;5.93;;;;;;;;;;5092381;28;20028;-73
2023/06/06 02:49:12;;;;;;;11.88;5.95;;;;;;;;;;5095184;28;20365;-73
2023/06/06 02:51:38;;;;;;;12.02;6.47;;;;;;;;;;5091755;28;20028;-73
2023/06/06 02:54:04;;;;;;;12.93;6.80;;;;;;;;;;5096087;28;20058;-73
2023/06/06 02:56:30;;;;;;;13.60;7.05;;;;;;;;;;5092398;28;20058;-73
2023/06/06 02:58:56;;;;;;;14.93;6.30;;;;;;;;;;5092380;28;20059;-73
2023/06/06 03:01:22;;;;;;;13.80;7.03;;;;;;;;;;5096167;28;20052;-73
2023/06/06 03:03:48;;;;;;;12.65;6.75;;;;;;;;;;5093236;28;20052;-73
2023/06/06 03:06:20;;;;;;;12.43;6.20;;;;;;;;;;5078704;28;20028;-73
2023/06/06 03:08:47;;;;;;;13.77;7.05;;;;;;;;;;5096986;28;20370;-73
2023/06/06 03:11:13;;;;;;;13.05;6.03;;;;;;;;;;5094614;28;20051;-73
2023/06/06 03:13:39;;;;;;;11.52;6.80;;;;;;;;;;5085682;28;20446;-73
2023/06/06 03:16:05;;;;;;;12.55;6.00;;;;;;;;;;5075878;28;20036;-73
2023/06/06 03:18:32;;;;;;;13.45;6.00;;;;;;;;;;5076183;28;20032;-73
2023/06/06 03:20:58;;;;;;;11.52;6.22;;;;;;;;;;5093068;28;20111;-73
2023/06/06 03:23:24;;;;;;;13.50;6.57;;;;;;;;;;5096001;28;20071;-73
2023/06/06 03:25:51;;;;;;;14.55;6.80;;;;;;;;;;5096390;28;20115;-73
2023/06/06 03:28:18;;;;;;;11.40;6.93;;;;;;;;;;5096361;28;20685;-73
2023/06/06 03:30:45;;;;;;;13.55;6.93;;;;;;;;;;5099067;28;20016;-73
2023/06/06 03:33:11;;;;;;;13.82;7.63;;;;;;;;;;5116574;28;20027;-73
2023/06/06 03:35:37;;;;;;;11.60;6.75;;;;;;;;;;5100076;28;20030;-73
2023/06/06 03:38:04;;;;;;;14.52;6.38;;;;;;;;;;5095795;28;20024;-73
2023/06/06 03:40:30;;;;;;;12.82;7.35;;;;;;;;;;5095412;28;20082;-73
2023/06/06 03:42:56;;;;;;;13.50;7.75;;;;;;;;;;5094478;28;20028;-73
2023/06/06 03:45:22;;;;;;;15.48;7.80;;;;;;;;;;5095544;28;20028;-73
2023/06/06 03:47:51;;;;;;;14.10;7.15;;;;;;;;;;5095905;28;20130;-73
2023/06/06 03:50:21;;;;;;;15.45;7.35;;;;;;;;;;5095702;28;20016;-74
2023/06/06 03:52:47;;;;;;;13.27;7.30;;;;;;;;;;5089578;28;20478;-73
2023/06/06 03:55:13;;;;;;;17.08;7.82;;;;;;;;;;5095280;28;20032;-73
2023/06/06 03:57:40;;;;;;;21.88;8.30;;;;;;;;;;5090959;28;20036;-73
2023/06/06 04:00:10;;;;;;;15.85;7.45;;;;;;;;;;5095242;28;20054;-73
2023/06/06 04:02:36;;;;;;;11.38;6.80;;;;;;;;;;5081765;28;20143;-74
2023/06/06 04:05:02;;;;;;;17.63;7.80;;;;;;;;;;5095267;28;20020;-73
2023/06/06 04:07:28;;;;;;;13.73;7.00;;;;;;;;;;5095115;28;20039;-73
2023/06/06 04:09:55;;;;;;;13.77;6.93;;;;;;;;;;5094854;28;20048;-73
2023/06/06 04:12:21;;;;;;;15.15;7.32;;;;;;;;;;5094616;28;20020;-73
2023/06/06 04:14:47;;;;;;;12.48;6.93;;;;;;;;;;5084160;28;20077;-73
2023/06/06 04:17:14;;;;;;;14.55;6.38;;;;;;;;;;5095027;28;20028;-73
2023/06/06 04:19:41;;;;;;;19.17;6.25;;;;;;;;;;5095287;28;20024;-73
2023/06/06 04:22:07;;;;;;;11.07;6.03;;;;;;;;;;5095093;28;20032;-73
2023/06/06 04:24:33;;;;;;;14.43;7.05;;;;;;;;;;5095019;28;20028;-74
2023/06/06 04:27:03;;;;;;;16.15;6.30;;;;;;;;;;5094970;28;20081;-73
2023/06/06 04:29:32;;;;;;;12.63;6.75;;;;;;;;;;5075280;28;20019;-73
2023/06/06 04:31:59;;;;;;;13.55;7.47;;;;;;;;;;5074606;28;20418;-73
2023/06/06 04:34:29;;;;;;;14.25;6.28;;;;;;;;;;5074810;28;20032;-73
2023/06/06 04:36:56;;;;;;;15.50;7.07;;;;;;;;;;5056516;28;20491;-73
2023/06/06 04:39:24;;;;;;;12.77;6.38;;;;;;;;;;5080533;28;20023;-72
2023/06/06 04:41:50;;;;;;;11.95;6.20;;;;;;;;;;5109667;28;20538;-73
2023/06/06 04:44:17;;;;;;;12.55;6.78;;;;;;;;;;5096488;28;20032;-73
2023/06/06 04:46:43;;;;;;;12.82;6.75;;;;;;;;;;5102937;28;20028;-73
2023/06/06 04:49:09;;;;;;;13.18;6.18;;;;;;;;;;5102770;28;20047;-73
2023/06/06 04:51:37;;;;;;;14.02;5.30;;;;;;;;;;5114929;28;20050;-73
2023/06/06 04:54:06;;;;;;;10.55;5.78;;;;;;;;;;5114965;28;20058;-74
2023/06/06 04:56:32;;;;;;;11.85;6.25;;;;;;;;;;5114956;28;20023;-73
2023/06/06 04:59:05;;;;;;;11.43;6.35;;;;;;;;;;5114535;28;20097;-73
2023/06/06 05:01:34;;;;;;;12.57;6.30;;;;;;;;;;5097118;28;20027;-73
2023/06/06 05:04:00;;;;;;;15.85;6.43;;;;;;;;;;5094406;28;20020;-72
2023/06/06 05:06:27;;;;;;;13.02;6.85;;;;;;;;;;5093951;28;20028;-73
2023/06/06 05:08:54;;;;;;;15.77;6.40;;;;;;;;;;5094243;28;20016;-73
2023/06/06 05:11:20;;;;;;;10.13;5.82;;;;;;;;;;5093034;28;20058;-73
2023/06/06 05:13:46;;;;;;;15.10;6.40;;;;;;;;;;5093844;28;20035;-73
2023/06/06 05:16:13;;;;;;;12.50;5.45;;;;;;;;;;5093763;28;20089;-73
2023/06/06 05:18:38;;;;;;;9.60;4.68;;;;;;;;;;5093834;28;20016;-73
2023/06/06 05:21:05;;;;;;;12.23;4.43;;;;;;;;;;5093706;28;20020;-73
2023/06/06 05:23:31;;;;;;;16.27;5.93;;;;;;;;;;5092597;28;21965;-73
2023/06/06 05:25:58;;;;;;;8.35;3.95;;;;;;;;;;5093546;28;20099;-73
2023/06/06 05:28:24;;;;;;;8.00;3.95;;;;;;;;;;5092795;28;20024;-73
2023/06/06 05:30:54;;;;;;;6.75;3.85;;;;;;;;;;5093701;28;20028;-73
2023/06/06 05:33:20;;;;;;;9.63;3.83;;;;;;;;;;5093539;28;20047;-73
2023/06/06 05:35:49;;;;;;;6.32;3.63;;;;;;;;;;5093402;28;20060;-73
2023/06/06 05:38:19;;;;;;;9.27;4.28;;;;;;;;;;5093588;28;20028;-73
2023/06/06 05:40:46;;;;;;;7.55;3.80;;;;;;;;;;5099279;28;20231;-74
2023/06/06 05:43:13;;;;;;;7.13;3.67;;;;;;;;;;5100902;28;20023;-74
2023/06/06 05:45:40;;;;;;;6.80;2.55;;;;;;;;;;5087949;28;20386;-73
2023/06/06 05:48:06;;;;;;;8.68;3.60;;;;;;;;;;5113754;28;20112;-73
2023/06/06 05:50:32;;;;;;;7.68;2.97;;;;;;;;;;5113628;28;20026;-74
2023/06/06 05:52:58;;;;;;;6.72;3.47;;;;;;;;;;5113539;28;20020;-73
2023/06/06 05:55:31;;;;;;;6.07;3.90;;;;;;;;;;5113691;28;20478;-73
2023/06/06 05:57:58;;;;;;;6.75;4.00;;;;;;;;;;5113605;28;20048;-74
2023/06/06 06:00:27;;;;;;;10.82;3.60;;;;;;;;;;5106282;28;20035;-74
2023/06/06 06:02:56;;;;;;;6.05;3.22;;;;;;;;;;5092629;28;20032;-74
2023/06/06 06:05:22;;;;;;;6.47;3.22;;;;;;;;;;5093049;28;20019;-74
2023/06/06 06:07:49;;;;;;;4.40;2.63;;;;;;;;;;5092788;28;20028;-73
2023/06/06 06:10:16;;;;;;;6.25;2.75;;;;;;;;;;5090788;28;20420;-74
2023/06/06 06:12:42;;;;;;;6.53;2.72;;;;;;;;;;5074478;28;20052;-74
2023/06/06 06:15:09;;;;;;;9.65;3.30;;;;;;;;;;5092374;28;20048;-74
2023/06/06 06:17:35;;;;;;;7.88;2.63;;;;;;;;;;5092272;28;20024;-73
2023/06/06 06:20:06;;;;;;;4.07;2.47;;;;;;;;;;5092600;28;20035;-73
2023/06/06 06:22:33;;;;;;;3.85;2.33;;;;;;;;;;5092894;28;20366;-73
2023/06/06 06:24:59;;;;;;;5.35;2.38;;;;;;;;;;5092963;28;20064;-74
2023/06/06 06:27:25;;;;;;;5.40;3.08;;;;;;;;;;5092924;28;20107;-74
2023/06/06 06:29:51;;;;;;;7.53;2.95;;;;;;;;;;5074496;28;20028;-74
2023/06/06 06:32:20;;;;;;;7.78;2.60;;;;;;;;;;5078996;28;20024;-74
2023/06/06 06:34:45;;;;;;;6.97;2.60;;;;;;;;;;5091616;28;20028;-74
2023/06/06 06:37:12;;;;;;;5.20;2.40;;;;;;;;;;5092456;28;20034;-74
2023/06/06 06:39:38;;;;;;;5.00;2.20;;;;;;;;;;5092636;28;20054;-74
2023/06/06 06:42:04;;;;;;;4.13;2.45;;;;;;;;;;5089174;28;20378;-74
2023/06/06 06:44:30;;;;;;;6.32;3.45;;;;;;;;;;5082585;28;20533;-74
2023/06/06 06:46:56;;;;;;;4.30;2.33;;;;;;;;;;5092456;28;20099;-74
2023/06/06 06:49:22;;;;;;;5.32;2.75;;;;;;;;;;5092712;28;20115;-74
2023/06/06 06:51:48;;;;;;;3.45;2.38;;;;;;;;;;5087271;28;20455;-74
2023/06/06 06:54:15;;;;;;;5.97;2.67;;;;;;;;;;5082031;28;20025;-74
2023/06/06 06:56:42;;;;;;;5.13;2.85;;;;;;;;;;5072536;28;20047;-74
2023/06/06 06:59:13;;;;;;;3.92;2.72;;;;;;;;;;5072483;28;20399;-74
2023/06/06 07:01:40;;;;;;;5.15;2.30;;;;;;;;;;5074537;28;20451;-75
2023/06/06 07:04:07;;;;;;;4.65;2.20;;;;;;;;;;5091692;28;20097;-74
2023/06/06 07:06:34;;;;;;;6.55;2.78;;;;;;;;;;5073976;28;20024;-74
2023/06/06 07:09:00;;;;;;;6.70;3.03;;;;;;;;;;5091492;28;20012;-74
2023/06/06 07:11:27;;;;;;;4.57;2.63;;;;;;;;;;5090704;28;20059;-74
2023/06/06 07:13:53;;;;;;;5.38;2.55;;;;;;;;;;5092198;28;20025;-74
2023/06/06 07:16:20;;;;;;;4.53;1.67;;;;;;;;;;5092480;28;20071;-74
2023/06/06 07:18:47;;;;;;;8.05;2.72;;;;;;;;;;5092136;28;20116;-74
2023/06/06 07:21:14;;;;;;;4.70;2.17;;;;;;;;;;5071660;28;20024;-74
2023/06/06 07:23:40;;;;;;;4.85;3.00;;;;;;;;;;5092357;28;20025;-75
2023/06/06 07:26:06;;;;;;;4.70;2.67;;;;;;;;;;5091987;28;20028;-74
2023/06/06 07:28:33;;;;;;;6.07;2.78;;;;;;;;;;5091975;28;20144;-74
2023/06/06 07:31:00;;;;;;;3.75;2.58;;;;;;;;;;5092043;28;20020;-75
2023/06/06 07:33:26;;;;;;;4.00;2.60;;;;;;;;;;5091918;28;20024;-75
2023/06/06 07:35:52;;;;;;;6.97;3.08;;;;;;;;;;5092014;28;20639;-74
2023/06/06 07:38:18;;;;;;;8.20;2.95;;;;;;;;;;5091786;28;20059;-75
2023/06/06 07:40:44;;;;;;;7.20;2.47;;;;;;;;;;5092285;28;20024;-74
2023/06/06 07:43:11;;;;;;;5.80;2.83;;;;;;;;;;5091886;28;20100;-75
2023/06/06 07:45:37;;;;;;;6.15;2.15;;;;;;;;;;5092912;28;20024;-75
2023/06/06 07:48:03;;;;;;;4.63;2.42;;;;;;;;;;5077235;28;20374;-74
2023/06/06 07:50:30;;;;;;;4.75;2.47;;;;;;;;;;5095878;28;20020;-75
2023/06/06 07:52:56;;;;;;;5.90;2.80;;;;;;;;;;5095733;28;20451;-74
2023/06/06 07:55:24;;;;;;;6.30;2.30;;;;;;;;;;5095451;28;20024;-75
2023/06/06 07:57:51;;;;;;;4.78;2.10;;;;;;;;;;5095661;28;20024;-75
2023/06/06 08:00:18;;;;;;;5.38;2.75;;;;;;;;;;5095575;28;20103;-75
2023/06/06 08:02:44;;;;;;;6.85;2.78;;;;;;;;;;5095408;28;20099;-74
2023/06/06 08:05:11;;;;;;;5.53;2.97;;;;;;;;;;5095111;28;20439;-75
2023/06/06 08:07:38;;;;;;;5.75;2.90;;;;;;;;;;5095133;28;20107;-74
2023/06/06 08:10:06;;;;;;;7.18;2.92;;;;;;;;;;5094079;28;20100;-75
2023/06/06 08:12:32;;;;;;;4.43;2.65;;;;;;;;;;5077034;28;20465;-75
2023/06/06 08:14:58;;;;;;;4.25;2.70;;;;;;;;;;5095256;28;20093;-75
2023/06/06 08:20:13;;;;;;;3.40;2.72;;;;;;;;;;4762363;22;20142;-76
2023/06/06 08:22:47;;;;;;;5.80;3.20;;;;;;;;;;5034558;28;20044;-74
2023/06/06 08:25:13;;;;;;;4.38;2.33;;;;;;;;;;5014820;28;20072;-74
2023/06/06 08:27:40;;;;;;;6.70;2.90;;;;;;;;;;5015029;28;20404;-74
2023/06/06 08:30:06;;;;;;;4.75;2.72;;;;;;;;;;5015180;28;20365;-74
2023/06/06 08:32:33;;;;;;;6.05;3.30;;;;;;;;;;5014854;28;20029;-74
2023/06/06 08:34:59;;;;;;;4.10;2.63;;;;;;;;;;5015240;28;20030;-74
2023/06/06 08:37:25;;;;;;;6.72;3.00;;;;;;;;;;5015279;28;20049;-74
2023/06/06 08:39:51;;;;;;;5.07;2.95;;;;;;;;;;5014751;28;20454;-74
2023/06/06 08:42:19;;;;;;;3.97;2.65;;;;;;;;;;5014725;28;20052;-74
2023/06/06 08:44:46;;;;;;;4.45;3.20;;;;;;;;;;5014884;28;20034;-74
2023/06/06 08:47:12;;;;;;;7.45;3.22;;;;;;;;;;5014562;28;20449;-74
2023/06/06 08:49:39;;;;;;;5.13;3.30;;;;;;;;;;5021165;28;20025;-74
2023/06/06 08:52:06;;;;;;;5.63;2.95;;;;;;;;;;5034280;28;20032;-74
2023/06/06 08:54:32;;;;;;;4.07;2.75;;;;;;;;;;5034230;28;20037;-74
2023/06/06 08:57:07;;;;;;;8.20;4.60;;;;;;;;;;5033264;28;20022;-74
2023/06/06 08:59:37;;;;;;;6.15;3.50;;;;;;;;;;5049585;28;20092;-74
2023/06/06 09:02:03;;;;;;;4.20;2.88;;;;;;;;;;5034407;28;20052;-74
2023/06/06 09:04:30;;;;;;;6.10;3.10;;;;;;;;;;5033898;28;20041;-74
2023/06/06 09:06:56;;;;;;;5.57;3.20;;;;;;;;;;5033925;28;20028;-74
2023/06/06 09:09:23;;;;;;;5.63;3.42;;;;;;;;;;5034603;28;20029;-74
2023/06/06 09:11:49;;;;;;;6.38;3.00;;;;;;;;;;5034099;28;20036;-74
2023/06/06 09:14:14;;;;;;;5.15;3.13;;;;;;;;;;5034028;28;20033;-74
2023/06/06 09:16:41;;;;;;;6.80;3.00;;;;;;;;;;5033800;28;20022;-74
2023/06/06 09:19:08;;;;;;;4.95;3.40;;;;;;;;;;5033787;28;20025;-74
2023/06/06 09:21:34;;;;;;;6.30;2.95;;;;;;;;;;5032404;28;20054;-74
2023/06/06 09:24:00;;;;;;;6.47;3.60;;;;;;;;;;5033677;28;20029;-74
2023/06/06 09:26:28;;;;;;;6.93;4.20;;;;;;;;;;5033812;28;20129;-74
2023/06/06 09:28:55;;;;;;;5.25;3.00;;;;;;;;;;5033545;28;20029;-74
2023/06/06 09:31:25;;;;;;;5.82;2.95;;;;;;;;;;5033614;28;20144;-74
2023/06/06 09:33:51;;;;;;;6.93;3.60;;;;;;;;;;5033536;28;20025;-74
2023/06/06 09:36:20;;;;;;;5.28;2.90;;;;;;;;;;5033433;28;20025;-74
2023/06/06 09:38:46;;;;;;;7.18;4.07;;;;;;;;;;5033365;28;20024;-74
2023/06/06 09:41:12;;;;;;;5.30;3.88;;;;;;;;;;5033414;28;20017;-74
2023/06/06 09:43:38;;;;;;;6.00;2.85;;;;;;;;;;5033208;28;20045;-74
2023/06/06 09:46:05;;;;;;;5.85;3.28;;;;;;;;;;5033323;28;20598;-74
2023/06/06 09:48:32;;;;;;;7.55;3.88;;;;;;;;;;5033443;28;20032;-74
2023/06/06 09:50:58;;;;;;;6.57;4.15;;;;;;;;;;5033114;28;20028;-74
2023/06/06 09:53:28;;;;;;;9.07;3.75;;;;;;;;;;5033120;28;20068;-74
2023/06/06 09:55:57;;;;;;;5.65;3.75;;;;;;;;;;5033184;28;20043;-74
2023/06/06 09:58:26;;;;;;;6.30;3.72;;;;;;;;;;5033256;28;20116;-74
2023/06/06 10:00:57;;;;;;;8.60;3.92;;;;;;;;;;5033115;28;20083;-74
2023/06/06 10:03:24;;;;;;;6.93;3.95;;;;;;;;;;5033319;28;20692;-74
2023/06/06 10:05:51;;;;;;;6.43;3.63;;;;;;;;;;5032898;28;20411;-74
2023/06/06 10:08:21;;;;;;;5.13;2.45;;;;;;;;;;5032641;28;20411;-74
2023/06/06 10:10:49;;;;;;;7.18;3.85;;;;;;;;;;5032977;28;20014;-74
2023/06/06 10:13:18;;;;;;;6.03;3.78;;;;;;;;;;5032963;28;20105;-74
2023/06/06 10:15:45;;;;;;;6.40;3.10;;;;;;;;;;5032682;28;20033;-74
2023/06/06 10:18:12;;;;;;;6.97;4.50;;;;;;;;;;5032582;28;20457;-74
2023/06/06 10:20:39;;;;;;;7.35;4.38;;;;;;;;;;5032539;28;20045;-74
2023/06/06 10:23:05;;;;;;;10.90;4.53;;;;;;;;;;5032890;28;20049;-74
2023/06/06 10:25:31;;;;;;;8.18;4.32;;;;;;;;;;5032894;28;20073;-74
2023/06/06 10:28:03;;;;;;;7.22;3.55;;;;;;;;;;5032631;28;20025;-74
2023/06/06 10:30:37;;;;;;;9.32;4.03;;;;;;;;;;5029762;28;20048;-74
2023/06/06 10:33:09;;;;;;;8.20;4.50;;;;;;;;;;5032817;28;20030;-74
2023/06/06 10:35:35;;;;;;;6.32;3.30;;;;;;;;;;5032636;28;20037;-74
2023/06/06 10:38:02;;;;;;;6.03;3.58;;;;;;;;;;5033028;28;20152;-74
2023/06/06 10:40:40;;;;;;;7.03;3.90;;;;;;;;;;5032997;28;20022;-74
2023/06/06 10:43:06;;;;;;;8.23;4.20;;;;;;;;;;5048157;28;20435;-74
2023/06/06 10:45:45;;;;;;;6.75;4.15;;;;;;;;;;5032126;28;20141;-74
2023/06/06 10:48:13;;;;;;;7.40;3.78;;;;;;;;;;5032885;28;20014;-74
2023/06/06 10:50:52;;;;;;;10.00;4.05;;;;;;;;;;5033156;28;20022;-74
2023/06/06 10:53:18;;;;;;;6.97;4.47;;;;;;;;;;5032145;28;20053;-74
2023/06/06 10:55:44;;;;;;;7.88;5.10;;;;;;;;;;5032855;28;20025;-74
2023/06/06 10:58:15;;;;;;;13.50;5.32;;;;;;;;;;5032842;28;20037;-74
2023/06/06 11:00:42;;;;;;;6.15;3.72;;;;;;;;;;5032926;28;20029;-74
2023/06/06 11:03:08;;;;;;;9.98;5.47;;;;;;;;;;5032686;28;20622;-74
2023/06/06 11:05:54;;;;;;;5.55;3.20;;;;;;;;;;5032741;28;20029;-74
2023/06/06 11:08:31;;;;;;;5.75;3.17;;;;;;;;;;5032650;28;20330;-74
2023/06/06 11:11:15;;;;;;;7.13;4.15;;;;;;;;;;5032582;28;20021;-74
2023/06/06 11:13:54;;;;;;;8.43;5.05;;;;;;;;;;5032629;28;20487;-74
2023/06/06 11:16:49;;;;;;;7.97;3.65;;;;;;;;;;5032703;28;20013;-74
2023/06/06 11:19:19;;;;;;;7.07;3.95;;;;;;;;;;5032181;28;20021;-74
2023/06/06 11:21:46;;;;;;;13.05;4.53;;;;;;;;;;5048345;28;20076;-74
2023/06/06 11:24:14;;;;;;;6.97;4.43;;;;;;;;;;5036172;28;20029;-74
2023/06/06 11:26:41;;;;;;;9.80;5.22;;;;;;;;;;5036379;28;20033;-74
2023/06/06 11:29:10;;;;;;;8.57;4.93;;;;;;;;;;5036391;28;20075;-74
2023/06/06 11:31:37;;;;;;;10.75;5.45;;;;;;;;;;5036309;28;20195;-74
2023/06/06 11:34:06;;;;;;;11.25;5.70;;;;;;;;;;5036243;28;20048;-74
2023/06/06 11:36:33;;;;;;;10.60;5.15;;;;;;;;;;5035979;28;20048;-74
2023/06/06 11:38:59;;;;;;;11.07;5.72;;;;;;;;;;5035974;28;20087;-74
2023/06/06 11:41:25;;;;;;;10.20;5.72;;;;;;;;;;5036283;28;20017;-74
2023/06/06 11:43:53;;;;;;;11.68;5.10;;;;;;;;;;5036100;28;20018;-74
2023/06/06 11:46:19;;;;;;;9.45;5.05;;;;;;;;;;5035974;28;20033;-74
2023/06/06 11:48:45;;;;;;;8.13;4.45;;;;;;;;;;5035800;28;20029;-74
2023/06/06 11:51:11;;;;;;;9.13;4.03;;;;;;;;;;5035815;28;20353;-74
2023/06/06 11:53:37;;;;;;;8.00;3.97;;;;;;;;;;5035978;28;20108;-74
2023/06/06 11:56:03;;;;;;;8.77;4.03;;;;;;;;;;5035840;28;20108;-74
2023/06/06 11:58:30;;;;;;;7.80;3.30;;;;;;;;;;5035930;28;20021;-74
2023/06/06 12:00:59;;;;;;;8.20;4.43;;;;;;;;;;5035986;28;20030;-74
2023/06/06 12:03:27;;;;;;;10.85;4.50;;;;;;;;;;5035964;28;20048;-75
2023/06/06 12:06:04;;;;;;;6.00;2.70;;;;;;;;;;5035455;28;20044;-74
2023/06/06 12:08:37;;;;;;;8.48;3.70;;;;;;;;;;5035611;28;20452;-74
2023/06/06 12:11:21;;;;;;;9.05;3.97;;;;;;;;;;5035521;28;20112;-74
2023/06/06 12:13:47;;;;;;;5.45;2.95;;;;;;;;;;5035321;28;20075;-74
2023/06/06 12:16:20;;;;;;;6.07;3.88;;;;;;;;;;5035254;28;20465;-74
2023/06/06 12:18:47;;;;;;;5.95;3.25;;;;;;;;;;5035320;28;20029;-74
2023/06/06 12:21:16;;;;;;;8.65;3.25;;;;;;;;;;5034681;28;20384;-74
2023/06/06 12:23:46;;;;;;;6.00;2.80;;;;;;;;;;5035220;28;20017;-74
2023/06/06 12:26:12;;;;;;;8.70;3.47;;;;;;;;;;5035378;28;20040;-74
2023/06/06 12:28:58;;;;;;;8.77;3.85;;;;;;;;;;5035158;28;20025;-74
2023/06/06 12:31:24;;;;;;;9.18;3.78;;;;;;;;;;5035096;28;20091;-74
2023/06/06 12:33:52;;;;;;;7.75;3.47;;;;;;;;;;5035163;28;20380;-74
2023/06/06 12:36:19;;;;;;;5.40;3.30;;;;;;;;;;5034791;28;20091;-74
2023/06/06 12:38:53;;;;;;;8.23;3.30;;;;;;;;;;5035110;28;20091;-74
2023/06/06 12:41:18;;;;;;;8.30;3.80;;;;;;;;;;5034988;28;20033;-74
2023/06/06 12:43:44;;;;;;;10.65;3.28;;;;;;;;;;5050000;28;20022;-74
2023/06/06 12:46:10;;;;;;;5.47;3.33;;;;;;;;;;5034864;28;20151;-74
2023/06/06 12:48:36;;;;;;;9.65;3.85;;;;;;;;;;5034920;28;20104;-75
2023/06/06 12:51:02;;;;;;;7.20;2.67;;;;;;;;;;5034889;28;20540;-74
2023/06/06 12:53:28;;;;;;;6.50;2.97;;;;;;;;;;5034755;28;20025;-74
2023/06/06 12:55:54;;;;;;;4.88;2.75;;;;;;;;;;5035175;28;20499;-75
2023/06/06 12:58:21;;;;;;;6.93;3.78;;;;;;;;;;5035999;28;20027;-75
2023/06/06 13:00:47;;;;;;;9.27;3.03;;;;;;;;;;5035495;28;20022;-75
2023/06/06 13:03:13;;;;;;;7.68;3.13;;;;;;;;;;5050032;28;20030;-75
2023/06/06 13:05:39;;;;;;;7.45;3.60;;;;;;;;;;5034766;28;20034;-75
2023/06/06 13:08:05;;;;;;;4.07;2.22;;;;;;;;;;5035303;28;20081;-75
2023/06/06 13:10:31;;;;;;;6.72;3.25;;;;;;;;;;5035267;28;20465;-75
2023/06/06 13:12:58;;;;;;;6.13;2.45;;;;;;;;;;5034628;28;20100;-75
2023/06/06 13:15:27;;;;;;;6.97;2.83;;;;;;;;;;5050018;28;20033;-75
2023/06/06 13:17:53;;;;;;;4.87;2.33;;;;;;;;;;5034540;28;20053;-75
2023/06/06 13:20:19;;;;;;;4.25;2.78;;;;;;;;;;5034037;28;20247;-75
2023/06/06 13:22:45;;;;;;;5.65;2.58;;;;;;;;;;5034247;28;20025;-75
2023/06/06 13:25:11;;;;;;;5.85;2.92;;;;;;;;;;5034312;28;20060;-75
2023/06/06 13:27:37;;;;;;;6.15;2.78;;;;;;;;;;5034547;28;20056;-75
2023/06/06 13:30:03;;;;;;;4.07;2.20;;;;;;;;;;5034051;28;20053;-75
2023/06/06 13:32:29;;;;;;;4.93;2.38;;;;;;;;;;5034076;28;20021;-74
2023/06/06 13:34:55;;;;;;;5.63;2.40;;;;;;;;;;5033761;28;20095;-75
2023/06/06 13:37:22;;;;;;;8.60;2.80;;;;;;;;;;5034265;28;20032;-75
2023/06/06 13:39:47;;;;;;;5.18;2.83;;;;;;;;;;5034131;28;20408;-75
2023/06/06 13:42:14;;;;;;;8.00;3.60;;;;;;;;;;5033547;28;20651;-74
2023/06/06 13:44:40;;;;;;;3.15;1.85;;;;;;;;;;5033128;28;20025;-74
2023/06/06 13:47:06;;;;;;;8.82;3.03;;;;;;;;;;5034003;28;20487;-74
2023/06/06 13:49:32;;;;;;;5.82;2.97;;;;;;;;;;5032661;28;20033;-73
2023/06/06 13:51:58;;;;;;;7.57;3.05;;;;;;;;;;5032323;28;20033;-73
2023/06/06 13:54:24;;;;;;;4.32;2.40;;;;;;;;;;5033091;28;20040;-73
2023/06/06 13:56:54;;;;;;;5.43;2.88;;;;;;;;;;5033050;28;20021;-73
2023/06/06 13:59:20;;;;;;;7.55;3.70;;;;;;;;;;5032846;28;20024;-74
2023/06/06 14:01:46;;;;;;;10.35;4.00;;;;;;;;;;5033218;28;20017;-73
2023/06/06 14:04:16;;;;;;;10.10;3.90;;;;;;;;;;5032871;28;20384;-74
2023/06/06 14:06:42;;;;;;;8.93;3.38;;;;;;;;;;5033292;28;20018;-74
2023/06/06 14:09:08;;;;;;;7.35;3.88;;;;;;;;;;5033246;28;20021;-73
2023/06/06 14:11:37;;;;;;;8.45;4.10;;;;;;;;;;5032782;28;20491;-74
2023/06/06 14:14:04;;;;;;;7.70;3.33;;;;;;;;;;5032782;28;20457;-74
2023/06/06 14:16:30;;;;;;;7.80;3.67;;;;;;;;;;5033172;28;20013;-74
2023/06/06 14:18:56;;;;;;;4.95;2.45;;;;;;;;;;5032692;28;20022;-73
2023/06/06 14:21:56;;;;;;;7.95;3.53;;;;;;;;;;5031383;28;20053;-73
2023/06/06 14:24:14;;;;;;;9.45;3.63;;;;;;;;;;5032361;28;20680;-74
2023/06/06 14:26:40;;;;;;;7.88;3.35;;;;;;;;;;5032508;28;20033;-74
2023/06/06 14:29:06;;;;;;;11.82;3.67;;;;;;;;;;5032634;28;20078;-74
2023/06/06 14:31:32;;;;;;;6.72;3.50;;;;;;;;;;5032576;28;20017;-74
2023/06/06 14:33:58;;;;;;;5.28;3.05;;;;;;;;;;5032765;28;20484;-74
2023/06/06 14:36:25;;;;;;;6.18;2.63;;;;;;;;;;5031234;28;20036;-74
2023/06/06 14:38:50;;;;;;;8.35;3.40;;;;;;;;;;5032503;28;20025;-74
2023/06/06 14:41:17;;;;;;;13.57;5.10;;;;;;;;;;5031128;28;20408;-74
2023/06/06 14:43:43;;;;;;;8.43;3.92;;;;;;;;;;5032696;28;20061;-74